Tiempo atmosférico en la estación meteorológica de Tortosa, Tarragona (44 m.)



Fecha
DESCASC
Temp. máxima en grados centígrados (hora)
DESCASC
Temp. mínima en grados centígrados (hora)
DESCASC
Temp. media en grados centígrados
DESCASC
Racha de viento máxima en m/sg (hora)
DESCASC
Velocidad máxima media en intervalos de 10 minutos(hora)
DESCASC
Precipitaciones diarias en mm
DESCASC
Precipitaciones de 00:00 a 06:00 en mm
DESCASC
Precipitaciones de 06:00 a 12:00 en mm
DESCASC
Precipitaciones de 12:00 a 18:00 en mm
DESCASC
Precipitaciones de 18:00 a 24:00 en mm
DESCASC
18-04-2019 20.5 (14:20) 14.1 (09:20) 17.3 14.72 (19:40) 7.5 (23:40) 0 0 0 0 0
17-04-2019 18.9 (13:40) 9.7 (05:10) 14.3 11.39 (16:00) 6.67 (16:20) 0 0 0 0 0
16-04-2019 24.2 (13:40) 12.1 (00:00) 18.2 9.17 (15:50) 5 (15:50) 0 0 0 0 0
15-04-2019 18.5 (15:40) 10.7 (00:00) 14.6 12.78 (14:30) 6.39 (16:20) 0 0 0 0 0
14-04-2019 28.9 (15:10) 7.4 (00:00) 18.1 11.11 (14:10) 5.28 (13:30) 0 0 0 0 0
13-04-2019 27.1 (15:00) 10.7 (00:00) 18.9 9.44 (02:00) 5.28 (01:30) 0 0 0 0 0
12-04-2019 24.2 (16:50) 12.1 (00:00) 18.2 16.39 (07:20) 6.67 (12:10) 0 0 0 0 0
11-04-2019 22 (16:20) 11.4 (00:00) 16.7 15.56 (19:40) 8.06 (19:30) 0 0 0 0 0
10-04-2019 21.9 (16:20) 11.7 (00:00) 16.8 12.22 (17:30) 6.67 (17:30) 0 0 0 0 0
09-04-2019 22.5 (15:10) 10.8 (00:00) 16.7 16.11 (09:10) 8.61 (09:30) 0 0 0 0 0
08-04-2019 22.9 (14:00) 7.5 (00:00) 15.2 10.56 (18:20) 5.56 (15:20) 2.6 0 0 0 2.6
07-04-2019 20.2 (17:20) 8.6 (00:00) 14.4 14.72 (11:40) 6.39 (12:00) 0 0 0 0 0
06-04-2019 19 (17:00) 8.8 (00:00) 13.9 17.5 (18:50) 10 (18:50) 2.6 0 0 0 2.6
05-04-2019 20.8 (14:50) 8.6 (00:00) 14.7 10 (17:10) 5.28 (15:30) 1.2 0 0 0 1.2
04-04-2019 19.6 (16:50) 6.3 (00:00) 13 15.56 (00:20) 7.5 (00:20) 0 0 0 0 0
03-04-2019 17.3 (13:10) 9.6 (07:50) 13.4 16.94 (23:10) 9.17 (23:30) 0.4 0 0 0 0.4
02-04-2019 22.7 (17:40) 7.3 (00:00) 15 6.67 (17:50) 3.89 (17:50) 0.4 0 0 0.4 0
01-04-2019 17.6 (14:30) 10.3 (00:00) 14 5.28 (12:00) 2.78 (12:10) 1 0.4 0.6 0 0
31-03-2019 15.4 (15:20) 7.7 (00:00) 11.5 3.61 (06:00) 2.22 (05:50) 3.2 0 0 2 1.2
30-03-2019 19.8 (13:20) 5.3 (00:00) 12.5 7.78 (15:40) 3.89 (16:30) 0 0 0 0 0
29-03-2019 20.7 (14:40) 4.7 (00:00) 12.7 10 (16:00) 5 (16:10) 0 0 0 0 0
28-03-2019 23 (13:40) 5.4 (00:00) 14.2 10 (14:40) 5.28 (14:40) 0 0 0 0 0
27-03-2019 22.9 (15:10) 5.6 (00:00) 14.2 8.89 (15:10) 4.72 (15:10) 0 0 0 0 0
26-03-2019 24 (14:50) 10.3 (00:00) 17.2 12.78 (17:30) 6.67 (17:30) 0 0 0 0 0
25-03-2019 23.8 (15:20) 8.9 (00:00) 16.3 15.28 (23:10) 7.78 (13:50) 0 0 0 0 0
24-03-2019 27.2 (13:20) 7.4 (00:00) 17.3 10 (14:50) 5 (15:10) 0 0 0 0 0
23-03-2019 25.8 (14:20) 6.3 (00:00) 16 7.5 (15:30) 4.17 (06:20) 0 0 0 0 0
22-03-2019 23.6 (15:50) 4.9 (00:00) 14.3 6.94 (16:30) 3.89 (17:00) 0 0 0 0 0
21-03-2019 21.9 (14:50) 7.8 (00:00) 14.8 11.11 (15:50) 6.11 (16:00) 0 0 0 0 0

Gráficas

Temp. máximas Temp. mínimas Temp. medias Precipitaciones Rachas de viento máximas Velocidades máximas media en intervalos de 10 minutos

Datos horarios

Fecha y hora oficial Temperatura (ºC) Velocidad del viento (km/h) Dirección del viento Racha (km/h) Dirección de racha Precipitación (mm) Presión (hPa) Tendencia (hPa) Humedad (%)
2019-04-19 23:00:00 17.4 6 Norte 33 Sudeste 0 1017.7 1 51
2019-04-19 22:00:00 17.5 6 Nordeste 40 Este 0 1017.5 1 51
2019-04-19 21:00:00 17.8 12 Este 46 Este 0 1017 0.5 49
2019-04-19 20:00:00 18.2 17 Este 41 Este 0 1016.7 0.6 47
2019-04-19 19:00:00 19.2 16 Este 47 Este 0 1016.5 0.4 45
2019-04-19 18:00:00 19.7 18 Este 44 Este 0 1016.5 0.3 41
2019-04-19 17:00:00 19.9 17 Este 50 Sudeste 0 1016.1 0 40
2019-04-19 16:00:00 19.3 21 Este 51 Este 0 1016.1 0 46
2019-04-19 15:00:00 19.6 17 Este 47 Este 0 1016.2 0.2 45
2019-04-19 14:00:00 18.9 17 Este 46 Este 0 1016.1 0.6 47
2019-04-19 13:00:00 17.8 10 Este 47 Nordeste 0 1016.1 1.4 55
2019-04-19 12:00:00 17.2 18 Este 52 Este 0 1016 2.1 59
2019-04-19 11:00:00 16.3 10 Este 36 Este 0 1015.5 2.1 65
2019-04-19 10:00:00 15.9 14 Este 49 Este 0 1014.7 1.9 67
2019-04-19 09:00:00 15.6 20 Este 49 Este 0 1013.9 1.7 69
2019-04-19 08:00:00 15.4 18 Este 45 Este 0 1013.4 0.7 71
2019-04-19 07:00:00 15.4 18 Este 50 Nordeste 0 1012.8 1 71
2019-04-19 06:00:00 15.4 19 Este 48 Este 0 1012.2 0.6 71
2019-04-19 05:00:00 15.6 15 Este 48 Nordeste 0 1012.7 0.5 69
2019-04-19 04:00:00 15.8 21 Este 48 Este 0 1011.8 0.1 68
2019-04-19 03:00:00 15.9 19 Este 51 Este 0 1011.6 -1.7 65
2019-04-19 02:00:00 15.4 13 Este 63 Este 0 1012.2 1 68
2019-04-19 01:00:00 14.6 19 Este 63 Este 0.2 1011.7 0.4 78
2019-04-19 00:00:00 15.6 26 Este 53 Este 0 1013.3 2.3 67
2019-04-18 23:00:00 16.1 21 Este 53 Este 0 1011.2 -0.1 65
2019-04-18 22:00:00 15.8 19 Este 50 Este 0 1011.3 0.5 65
2019-04-18 21:00:00 15.7 14 Este 38 Este 0 1011 1.1 67
2019-04-18 20:00:00 16.4 13 Sudeste 53 Este 0 1011.3 1.5 64
2019-04-18 19:00:00 17.6 11 Sudeste 33 Nordeste 0 1010.8 -0.1 57
2019-04-18 18:00:00 17.9 13 Este 44 Nordeste 0 1009.9 -0.8 54
2019-04-18 17:00:00 19 15 Nordeste 42 Este 0 1009.8 -1 49
2019-04-18 16:00:00 19.2 14 Este 48 Sudeste 0 1010.9 -0.7 49
2019-04-18 15:00:00 19.8 19 Este 40 Sudeste 0 1010.7 -1.3 45
2019-04-18 14:00:00 20 11 Este 37 Este 0 1010.8 -1.2 40
2019-04-18 13:00:00 17.9 15 Este 30 Este 0 1011.6 -0.7 48
2019-04-18 12:00:00 17.3 13 Este 36 Este 0 1012 0.5 51
2019-04-18 11:00:00 16.2 4 Este 15 Sudeste 0 1012 -0.4 63
2019-04-18 10:00:00 14.7 4 Sudeste 26 Nordeste 0 1012.3 0 73
2019-04-18 09:00:00 14.4 7 Nordeste 19 Este 0 1011.5 -0.3 77
2019-04-18 08:00:00 14.3 4 Este 16 Nordeste 0 1012.4 0.8 75
2019-04-18 07:00:00 14.4 4 Este 16 Este 0 1012.3 -0.3 75
2019-04-18 06:00:00 14.6 7 Este 15 Este 0 1011.8 -1.4 77
2019-04-18 05:00:00 14.5 5 Este 12 Este 0 1011.6 -1.3 79
2019-04-18 04:00:00 14.5 4 Este 12 Sudeste 0 1012.6 -0.2 82
2019-04-18 03:00:00 14.5 4 Sur 8 Sur 0 1013.2 0.2 84
2019-04-18 02:00:00 14.5 3 Sur 11 Sur 0 1012.9 -0.2 83
2019-04-18 01:00:00 14.4 7 Sur 14 Sur 0 1012.8 -0.1 85
2019-04-18 00:00:00 14.4 8 Sudeste 21 Este 0 1013 0.8 82
2019-04-17 23:00:00 14.4 9 Sudeste 21 Sudeste 0 1013.1 1.4 84
2019-04-17 22:00:00 14.4 11 Sudeste 21 Este 0 1012.9 1.4 82
2019-04-17 21:00:00 14.5 10 Sudeste 24 Sudeste 0 1012.2 0.7 81
2019-04-17 20:00:00 15.3 14 Sudeste 29 Sudeste 0 1011.7 0.3 76
2019-04-17 19:00:00 15.7 14 Sudeste 33 Sudeste 0 1011.5 -0.6 74
2019-04-17 18:00:00 16.1 16 Sudeste 38 Este 0 1011.5 -1.2 72
2019-04-17 17:00:00 17.3 19 Este 40 Este 0 1011.4 -2 68
2019-04-17 16:00:00 18 21 Este 41 Este 0 1012.1 -2.1 65
2019-04-17 15:00:00 18.5 18 Este 32 Este 0 1012.7 -1.8 64
2019-04-17 14:00:00 18.7 10 Sudeste 22 Sur 0 1013.4 -1.3 62
2019-04-17 13:00:00 17 10 Sudeste 24 Sudeste 0 1014.2 -0.1 67
2019-04-17 12:00:00 16.5 10 Sudeste 21 Sur 0 1014.5 0.1 70
2019-04-17 11:00:00 15.9 11 Sudeste 22 Sudeste 0 1014.7 0.4 73
2019-04-17 10:00:00 15 8 Sudeste 18 Sudeste 0 1014.3 0.1 81
2019-04-17 09:00:00 13.4 9 Sur 15 Sur 0 1014.4 0.1 90
2019-04-17 08:00:00 11.5 6 Sur 10 Sur 0 1014.3 -0.4 93
2019-04-17 07:00:00 11 6 Sudoeste 12 Sudoeste 0 1014.2 -1 96
2019-04-17 06:00:00 9.9 3 Sudoeste 7 Sudoeste 0 1014.3 -1.3 92
2019-04-17 05:00:00 9.8 5 Sudoeste 9 Sudoeste 0 1014.7 -1.5 92
2019-04-17 04:00:00 10.3 4 Sur 7 Sudeste 0 1015.2 -1.1 92
2019-04-17 03:00:00 10.5 5 Sudeste 9 Sudeste 0 1015.6 -0.8 91
2019-04-17 02:00:00 11.1 6 Sudeste 8 Sudeste 0 1016.2 -0.3 92
2019-04-17 01:00:00 11.7 4 Sur 6 Sur 0 1016.3 0.1 90
2019-04-17 00:00:00 12.5 6 Sudoeste 11 Sudoeste 0 1016.4 0.6 89
2019-04-16 23:00:00 13 6 Sur 8 Sur 0 1016.5 1.2 87
2019-04-16 22:00:00 13.9 3 Sur 13 Sudeste 0 1016.2 1.1 82
2019-04-16 21:00:00 14.9 6 Sudeste 17 Sudeste 0 1015.8 0.8 76
2019-04-16 20:00:00 16.2 12 Sudeste 23 Este 0 1015.3 0.6 66
2019-04-16 19:00:00 17.6 10 Sudeste 26 Este 0 1015.1 0.8 57
2019-04-16 18:00:00 18 17 Sudeste 30 Sudeste 0 1015 0.7 47
2019-04-16 17:00:00 20 16 Sudeste 31 Sudeste 0 1014.7 0.5 43
2019-04-16 16:00:00 22.3 17 Sudeste 33 Sudeste 0 1014.3 0 41
2019-04-16 15:00:00 23.1 14 Sudeste 31 Sudeste 0 1014.3 -0.3 42
2019-04-16 14:00:00 22.6 13 Sudeste 26 Sudeste 0 1014.2 -0.3 41
2019-04-16 13:00:00 23.2 12 Nordeste 29 Nordeste 0 1014.3 -0.4 40
2019-04-16 12:00:00 22.2 14 Nordeste 29 Norte 0 1014.6 0.5 41
2019-04-16 11:00:00 20.1 8 Norte 25 Nordeste 0 1014.5 1.3 45
2019-04-16 10:00:00 17.1 12 Nordeste 25 Nordeste 0 1014.7 2.4 58
2019-04-16 09:00:00 13.5 8 Norte 18 Norte 0 1014.1 2.2 72
2019-04-16 08:00:00 12.3 5 Oeste 13 Norte 0 1013.2 1.1 80
2019-04-16 07:00:00 12.5 6 Sudoeste 9 Sudoeste 0 1012.3 0.3 82
2019-04-16 06:00:00 12.9 4 Sudoeste 5 Sudoeste 0 1011.9 0.1 80
2019-04-16 05:00:00 13.2 0 Calma 6 Oeste 0 1012.1 0.2 80
2019-04-16 04:00:00 13.4 3 Oeste 7 Sudoeste 0 1012 0.2 78
2019-04-16 03:00:00 13.5 6 Sur 13 Sur 0 1011.8 -0.1 78
2019-04-16 02:00:00 13.5 5 Sudoeste 16 Sur 0 1011.9 0.4 77
2019-04-16 01:00:00 13.5 12 Sudeste 19 Sudeste 0 1011.8 0.6 76
2019-04-16 00:00:00 13.7 9 Sudeste 15 Sudeste 0 1011.9 1.1 77
2019-04-15 23:00:00 13.8 9 Sur 21 Sudeste 0 1011.5 1 76
2019-04-15 22:00:00 13.9 13 Sur 21 Sudeste 0 1011.2 0.7 75
2019-04-15 21:00:00 14 11 Sudeste 27 Sudeste 0 1010.8 0.3 74
2019-04-15 20:00:00 15 14 Sudeste 31 Sudeste 0 1010.5 0 69
2019-04-15 19:00:00 16.7 16 Sudeste 35 Sudeste 0 1010.5 -0.6 61
2019-04-15 18:00:00 16.7 17 Este 40 Sudeste 0 1010.5 -1.1 63
2019-04-15 17:00:00 17.2 21 Este 44 Sudeste 0 1010.5 -1.7 59
2019-04-15 16:00:00 17.9 19 Sudeste 39 Este 0 1011.1 -1.6 56
2019-04-15 15:00:00 18 16 Sudeste 46 Sudeste 0 1011.6 -1.6 58
2019-04-15 14:00:00 16.8 21 Este 34 Este 0 1012.2 -1.3 63
2019-04-15 13:00:00 16.6 15 Este 28 Sudeste 0 1012.7 -0.7 63
2019-04-15 12:00:00 16.2 13 Sudeste 28 Sudeste 0 1013.2 -0.1 69
2019-04-15 11:00:00 17 15 Sudeste 26 Sudeste 0 1013.5 0.7 65
2019-04-15 10:00:00 17.1 11 Sur 21 Sudeste 0 1013.4 0.8 65
2019-04-15 09:00:00 14 4 Sur 7 Sur 0 1013.3 1 80
2019-04-15 08:00:00 11.2 2 Sur 8 Sudoeste 0 1012.8 0.1 87
2019-04-15 07:00:00 11.2 0 Calma 7 Sudeste 0 1012.6 -0.1 90
2019-04-15 06:00:00 11.6 3 Norte 8 Oeste 0 1012.3 0 91
2019-04-15 05:00:00 12.4 2 Sur 20 Sudoeste 0 1012.7 0.6 88
2019-04-15 04:00:00 12.4 10 Sudoeste 18 Sudoeste 0 1012.7 0.9 90
2019-04-15 03:00:00 12.3 11 Sudoeste 16 Sudoeste 0 1012.3 0.9 92
2019-04-15 02:00:00 12.2 6 Sudoeste 11 Sudoeste 0 1012.1 0.8 92
2019-04-15 01:00:00 12.6 6 Sudoeste 13 Sudoeste 0 1011.8 0.9 91
2019-04-15 00:00:00 13.1 9 Sudoeste 13 Sur 0 1011.4 1.4 90
2019-04-14 23:00:00 13.6 8 Sudoeste 15 Sudoeste 0 1011.3 2 88
2019-04-14 22:00:00 14.2 10 Sudoeste 19 Sur 0 1010.9 2.2 85
2019-04-14 21:00:00 15.3 11 Sur 21 Sudoeste 0 1010 1.4 77
2019-04-14 20:00:00 17.8 12 Sur 23 Sur 0 1009.3 1 63
2019-04-14 19:00:00 20.5 13 Sur 27 Sur 0 1008.7 0.3 50
2019-04-14 18:00:00 22.5 15 Sudeste 32 Sur 0 1008.6 0.1 45
2019-04-14 17:00:00 24.3 17 Sudeste 30 Sudeste 0 1008.3 -0.2 41
2019-04-14 16:00:00 25.3 16 Sudeste 34 Oeste 0 1008.4 -0.4 38
2019-04-14 15:00:00 28.7 13 Oeste 40 Norte 0 1008.5 -0.9 22
2019-04-14 14:00:00 27.8 9 Noroeste 36 Noroeste 0 1008.5 -1.2 24
2019-04-14 13:00:00 25.9 5 Noroeste 27 Noroeste 0 1008.8 -0.5 25
2019-04-14 12:00:00 23 9 Noroeste 21 Noroeste 0 1009.4 0.1 25
2019-04-14 11:00:00 19.5 7 Norte 26 Nordeste 0 1009.7 0.3 29
2019-04-14 10:00:00 16.6 12 Norte 25 Noroeste 0 1009.3 0.1 28
2019-04-14 09:00:00 12.6 9 Norte 15 Norte 0 1009.3 0.1 34
2019-04-14 08:00:00 9.2 3 Norte 12 Sudoeste 0 1009.4 -0.3 53
2019-04-14 07:00:00 7.8 2 Sudeste 13 Oeste 0 1009.2 -0.8 66
2019-04-14 06:00:00 7.5 2 Sur 7 Sudoeste 0 1009.2 -1.1 68
2019-04-14 05:00:00 7.8 3 Sudeste 14 Norte 0 1009.7 -1 64
2019-04-14 04:00:00 8.3 4 Norte 14 Norte 0 1010 -1.1 63
2019-04-14 03:00:00 9.4 4 Norte 9 Norte 0 1010.3 -0.8 63
2019-04-14 02:00:00 10.6 5 Norte 5 Norte 0 1010.7 -0.5 58
2019-04-14 01:00:00 11.6 3 Sudeste 9 Noroeste 0 1011.1 -0.1 58
2019-04-14 00:00:00 13.3 7 Noroeste 11 Noroeste 0 1011.1 0.5 51
2019-04-13 23:00:00 14.6 3 Norte 9 Sur 0 1011.2 0.8 51
2019-04-13 22:00:00 16.1 5 Sur 16 Sur 0 1011.2 0.8 46
2019-04-13 21:00:00 17.9 11 Sudeste 22 Sudeste 0 1010.6 0.4 43
2019-04-13 20:00:00 21 10 Sur 22 Sur 0 1010.4 0.3 35
2019-04-13 19:00:00 24 13 Sur 22 Sur 0 1010.4 -0.1 27
2019-04-13 18:00:00 24.9 12 Sudeste 21 Sur 0 1010.2 -0.7 25
2019-04-13 17:00:00 26.7 10 Sur 24 Sudeste 0 1010.1 -1.6 18
2019-04-13 16:00:00 24.8 15 Este 26 Este 0 1010.5 -1.8 19
2019-04-13 15:00:00 27.1 10 Nordeste 30 Nordeste 0 1010.9 -2 13
2019-04-13 14:00:00 25.7 10 Norte 26 Nordeste 0 1011.7 -1.3 13
2019-04-13 13:00:00 24.5 9 Nordeste 30 Norte 0 1012.3 -0.6 17
2019-04-13 12:00:00 22.5 14 Nordeste 30 Nordeste 0 1012.9 -0.1 21
2019-04-13 11:00:00 20.8 13 Nordeste 32 Norte 0 1013 0.4 23
2019-04-13 10:00:00 18.1 12 Nordeste 22 Norte 0 1012.9 0.7 30
2019-04-13 09:00:00 14.4 9 Norte 22 Norte 0 1013 1.3 37
2019-04-13 08:00:00 11.3 9 Norte 19 Nordeste 0 1012.6 1.1 45
2019-04-13 07:00:00 11 6 Norte 18 Nordeste 0 1012.2 0.6 46
2019-04-13 06:00:00 11.5 9 Norte 19 Norte 0 1011.7 0.1 45
2019-04-13 05:00:00 11.7 8 Norte 14 Norte 0 1011.5 -0.5 44
2019-04-13 04:00:00 12.2 3 Oeste 20 Noroeste 0 1011.6 -0.2 52
2019-04-13 03:00:00 14.3 7 Oeste 31 Oeste 0 1011.6 0.2 43
2019-04-13 02:00:00 15.8 14 Noroeste 34 Noroeste 0 1012 0.9 31
2019-04-13 01:00:00 16.1 14 Norte 28 Norte 0 1011.8 1.2 31
2019-04-13 00:00:00 15.2 8 Norte 18 Norte 0 1011.4 1.6 34
2019-04-12 23:00:00 16.2 5 Nordeste 22 Noroeste 0 1011.1 1.7 33
2019-04-12 22:00:00 17.4 9 Noroeste 27 Noroeste 0 1010.6 1.3 28
2019-04-12 21:00:00 18.4 8 Oeste 31 Oeste 0 1009.8 0.5 27
2019-04-12 20:00:00 20.1 10 Noroeste 27 Noroeste 0 1009.4 0.2 25
2019-04-12 19:00:00 22.1 13 Noroeste 36 Oeste 0 1009.3 -0.5 24
2019-04-12 18:00:00 23.2 17 Oeste 36 Oeste 0 1009.3 -1.2 22
2019-04-12 17:00:00 23.5 17 Noroeste 29 Noroeste 0 1009.2 -1.6 21
2019-04-12 16:00:00 23 13 Oeste 32 Oeste 0 1009.8 -1.4 25
2019-04-12 15:00:00 22.6 18 Oeste 31 Noroeste 0 1010.5 -0.9 26
2019-04-12 14:00:00 21.5 10 Oeste 43 Oeste 0 1010.8 -0.5 30
2019-04-12 13:00:00 19.3 22 Oeste 44 Noroeste 0 1011.2 0.3 36
2019-04-12 12:00:00 18.1 20 Noroeste 45 Noroeste 0 1011.4 0.3 39
2019-04-12 11:00:00 15.3 24 Noroeste 55 Noroeste 0 1011.3 0.5 46
2019-04-12 10:00:00 13.7 18 Noroeste 47 Noroeste 0 1010.9 0.4 50
2019-04-12 09:00:00 12.8 15 Noroeste 44 Noroeste 0 1011.1 0.7 53
2019-04-12 08:00:00 12.1 12 Norte 59 Noroeste 0 1010.8 0.1 56
2019-04-12 07:00:00 12.1 20 Noroeste 46 Noroeste 0 1010.5 -0.5 54
2019-04-12 06:00:00 12.3 21 Noroeste 55 Noroeste 0 1010.4 -0.7 53
2019-04-12 05:00:00 12.2 19 Noroeste 41 Noroeste 0 1010.7 -0.2 54
2019-04-12 04:00:00 12.3 16 Noroeste 39 Oeste 0 1011 0.2 54
2019-04-12 03:00:00 12.7 19 Noroeste 50 Noroeste 0 1011.1 0.2 50
2019-04-12 02:00:00 12.9 23 Noroeste 49 Norte 0 1010.9 0.1 49
2019-04-12 01:00:00 13.4 12 Norte 49 Norte 0 1010.8 0.8 50
2019-04-12 00:00:00 13.9 12 Noroeste 47 Noroeste 0 1010.9 1.6 50
2019-04-11 23:00:00 14.7 12 Norte 44 Norte 0 1010.8 2.3 48
2019-04-11 22:00:00 15.4 16 Norte 52 Oeste 0 1010 1.8 45
2019-04-11 21:00:00 15.9 11 Noroeste 49 Noroeste 0 1009.3 1.4 45
2019-04-11 20:00:00 17.2 23 Noroeste 56 Oeste 0 1008.5 0.4 38
2019-04-11 19:00:00 19.3 24 Oeste 53 Noroeste 0 1008.2 -0.2 33
2019-04-11 18:00:00 20.7 23 Oeste 48 Oeste 0 1007.9 -1 29
2019-04-11 17:00:00 21.5 18 Noroeste 44 Oeste 0 1008.1 -1.2 27
2019-04-11 16:00:00 21.4 19 Oeste 53 Noroeste 0 1008.4 -1.3 28
2019-04-11 15:00:00 20.8 21 Oeste 44 Oeste 0 1008.9 -1.3 28
2019-04-11 14:00:00 19.9 22 Noroeste 46 Oeste 0 1009.3 -1 30
2019-04-11 13:00:00 18.5 21 Noroeste 46 Noroeste 0 1009.7 -0.6 33
2019-04-11 12:00:00 18.2 14 Norte 37 Noroeste 0 1010.2 0.1 35
2019-04-11 11:00:00 16.3 18 Noroeste 46 Norte 0 1010.3 0.6 40
2019-04-11 10:00:00 14.5 20 Noroeste 46 Noroeste 0 1010.3 1.1 47
2019-04-11 09:00:00 13.6 19 Norte 52 Noroeste 0 1010.1 0.9 49
2019-04-11 08:00:00 11.6 12 Norte 48 Noroeste 0 1009.7 0.6 56
2019-04-11 07:00:00 11.6 12 Norte 46 Noroeste 0 1009.2 0.2 57
2019-04-11 06:00:00 12 20 Noroeste 50 Noroeste 0 1009.2 0.1 55
2019-04-11 05:00:00 12.1 16 Norte 41 Norte 0 1009.1 0 55
2019-04-11 04:00:00 12.3 14 Noroeste 46 Noroeste 0 1009 0 54
2019-04-11 03:00:00 12.8 14 Noroeste 44 Noroeste 0 1009.1 0.4 52
2019-04-11 02:00:00 13.4 15 Noroeste 51 Noroeste 0 1009.1 1 51
2019-04-11 01:00:00 14.3 19 Noroeste 36 Noroeste 0 1009 1.5 47
2019-04-11 00:00:00 14.8 7 Norte 33 Oeste 0 1008.7 2.2 45
2019-04-10 23:00:00 16.1 14 Noroeste 37 Noroeste 0 1008.1 2.6 43
2019-04-10 22:00:00 16.4 12 Noroeste 28 Noroeste 0 1007.5 2.4 40
2019-04-10 21:00:00 16.8 11 Noroeste 35 Noroeste 0 1006.5 1.9 36
2019-04-10 20:00:00 18.3 10 Noroeste 23 Oeste 0 1005.5 0.7 37
2019-04-10 19:00:00 20.5 12 Noroeste 33 Noroeste 0 1005.1 0.1 31
2019-04-10 18:00:00 20.9 16 Oeste 44 Oeste 0 1004.6 -0.7 31
2019-04-10 17:00:00 20 17 Oeste 37 Noroeste 0 1004.8 -0.7 32
2019-04-10 16:00:00 21 16 Oeste 38 Oeste 0 1005 -0.8 30
2019-04-10 15:00:00 19.4 16 Noroeste 39 Oeste 0 1005.3 -0.6 33
2019-04-10 14:00:00 17.6 20 Noroeste 44 Noroeste 0 1005.5 -0.6 37
2019-04-10 13:00:00 17.1 12 Noroeste 37 Noroeste 0 1005.8 0.2 39
2019-04-10 12:00:00 17.7 9 Norte 30 Noroeste 0 1005.9 0.2 40
2019-04-10 11:00:00 17.1 11 Norte 34 Norte 0 1006.1 0.9 41
2019-04-10 10:00:00 16.1 15 Norte 34 Noroeste 0 1005.6 0.8 44
2019-04-10 09:00:00 12.7 10 Norte 32 Norte 0 1005.7 1.1 55
2019-04-10 08:00:00 12.3 13 Norte 33 Norte 0 1005.2 0.6 55
2019-04-10 07:00:00 11.8 12 Norte 30 Noroeste 0 1004.8 0 59
2019-04-10 06:00:00 11.9 13 Norte 32 Norte 0 1004.6 -0.4 60
2019-04-10 05:00:00 12.4 13 Noroeste 32 Noroeste 0 1004.6 -0.7 58
2019-04-10 04:00:00 12.8 11 Norte 35 Norte 0 1004.8 -0.7 56
2019-04-10 03:00:00 13.3 15 Norte 39 Noroeste 0 1005 -0.2 55
2019-04-10 02:00:00 13.6 16 Norte 38 Norte 0 1005.3 0.2 53
2019-04-10 01:00:00 14 15 Norte 42 Noroeste 0 1005.5 0.8 51
2019-04-10 00:00:00 14.4 12 Noroeste 34 Noroeste 0 1005.2 1 48
2019-04-09 23:00:00 14.8 12 Norte 32 Norte 0 1005.1 1.3 47
2019-04-09 22:00:00 15.6 15 Noroeste 34 Noroeste 0 1004.7 1.5 44
2019-04-09 21:00:00 16.5 10 Noroeste 32 Noroeste 0 1004.2 0.9 40
2019-04-09 20:00:00 17.9 16 Oeste 34 Noroeste 0 1003.8 0.5 35
2019-04-09 19:00:00 19.2 11 Sudoeste 22 Oeste 0 1003.2 -0.3 32
2019-04-09 18:00:00 20.1 6 Sudoeste 33 Sur 0 1003.3 -1.4 32
2019-04-09 17:00:00 20.7 20 Sudoeste 34 Oeste 0 1003.3 -1.6 34
2019-04-09 16:00:00 21.7 8 Noroeste 29 Oeste 0 1003.5 -1.5 26
2019-04-09 15:00:00 22 16 Oeste 40 Oeste 0 1004.7 -0.8 26
2019-04-09 14:00:00 21.8 13 Oeste 36 Oeste 0 1004.9 -0.8 25
2019-04-09 13:00:00 20.9 14 Oeste 40 Oeste 0 1005 -0.7 31
2019-04-09 12:00:00 19.7 15 Oeste 38 Norte 0 1005.5 0.5 32
2019-04-09 11:00:00 18.6 10 Norte 37 Noroeste 0 1005.7 0.5 41
2019-04-09 10:00:00 15.5 19 Noroeste 58 Oeste 0 1005.7 0.5 49
2019-04-09 09:00:00 14.2 18 Noroeste 44 Noroeste 0 1005 -0.4 53
2019-04-09 08:00:00 11.3 12 Norte 32 Norte 0 1005.2 0.1 71
2019-04-09 07:00:00 11.3 12 Norte 31 Norte 0 1005.2 0.3 69
2019-04-09 06:00:00 12.4 12 Norte 32 Norte 0 1005.4 0 64
2019-04-09 05:00:00 11.1 9 Noroeste 19 Noroeste 0 1005.1 -0.6 77
2019-04-09 04:00:00 11.3 10 Norte 21 Norte 0 1004.9 -1.1 87
2019-04-09 03:00:00 10.9 6 Norte 15 Norte 0 1005.4 -0.5 96
2019-04-09 02:00:00 11.1 8 Norte 12 Norte 0 1005.7 -0.8 97
2019-04-09 01:00:00 11.2 3 Sur 12 Noroeste 0 1006 0 95
2019-04-09 00:00:00 11.9 9 Norte 18 Oeste 1.6 1005.9 0.4 96
2019-04-08 23:00:00 12.2 8 Noroeste 15 Oeste 0 1006.5 0.9 94
2019-04-08 22:00:00 13 4 Este 13 Noroeste 0 1006 0.4 91
2019-04-08 21:00:00 13.8 3 Oeste 9 Noroeste 0 1005.5 0.4 90
2019-04-08 20:00:00 14.8 4 Sudeste 12 Sur 0.8 1005.6 0.4 86
2019-04-08 19:00:00 16.7 12 Sudoeste 38 Sur 0.2 1005.6 0.3 72
2019-04-08 18:00:00 18.6 10 Sur 27 Sur 0 1005.1 -0.8 52
2019-04-08 17:00:00 19.3 16 Sur 32 Sudoeste 0 1005.2 -1 53
2019-04-08 16:00:00 21.2 12 Noroeste 38 Noroeste 0 1005.3 -1.4 42
2019-04-08 15:00:00 22.3 9 Noroeste 22 Nordeste 0 1005.9 -1.2 39
2019-04-08 14:00:00 22.9 9 Norte 20 Norte 0 1006.2 -1 39
2019-04-08 13:00:00 21.3 7 Norte 22 Oeste 0 1006.7 -0.7 41
2019-04-08 12:00:00 20.3 5 Nordeste 11 Nordeste 0 1007.1 -0.5 41
2019-04-08 11:00:00 18.8 4 Sur 15 Norte 0 1007.2 -0.4 49
2019-04-08 10:00:00 13.6 6 Norte 17 Norte 0 1007.4 0.1 63
2019-04-08 09:00:00 10.4 4 Norte 9 Norte 0 1007.6 0.1 77
2019-04-08 08:00:00 8.8 3 Norte 12 Norte 0 1007.6 -0.1 82
2019-04-08 07:00:00 8.6 5 Norte 14 Norte 0 1007.3 -0.7 83
2019-04-08 06:00:00 8.2 5 Norte 12 Norte 0 1007.5 -0.9 83
2019-04-08 05:00:00 7.6 4 Norte 9 Norte 0 1007.7 -1.2 85
2019-04-08 04:00:00 7.7 4 Norte 12 Norte 0 1008 -1.1 84
2019-04-08 03:00:00 8.7 5 Norte 9 Noroeste 0 1008.4 -0.8 83
2019-04-08 02:00:00 9.3 5 Norte 9 Norte 0 1008.9 0.1 83
2019-04-08 01:00:00 10.3 3 Oeste 8 Sur 0 1009.1 0.8 83
2019-04-08 00:00:00 11.3 9 Sur 27 Sudoeste 0 1009.2 1.8 77
2019-04-07 23:00:00 11.9 17 Sudoeste 27 Sudoeste 0 1008.8 2.2 71
2019-04-07 22:00:00 13 4 Sudeste 10 Sudeste 0 1008.3 2.8 52
2019-04-07 21:00:00 14.7 5 Norte 13 Norte 0 1007.4 2.5 43
2019-04-07 20:00:00 17 6 Norte 22 Norte 0 1006.6 2.2 36
2019-04-07 19:00:00 18.8 12 Noroeste 30 Oeste 0 1005.5 1.6 28
2019-04-07 18:00:00 19.7 16 Oeste 38 Noroeste 0 1004.9 0.8 27
2019-04-07 17:00:00 19.6 15 Noroeste 45 Norte 0 1004.4 0.8 28
2019-04-07 16:00:00 19 19 Noroeste 46 Noroeste 0 1003.9 0.7 31
2019-04-07 15:00:00 18.5 18 Noroeste 50 Noroeste 0 1004.1 1.3 31
2019-04-07 14:00:00 18.5 20 Noroeste 45 Norte 0 1003.6 1.1 32
2019-04-07 13:00:00 17 14 Noroeste 38 Noroeste 0 1003.2 1.4 41
2019-04-07 12:00:00 13.2 23 Noroeste 53 Norte 0 1002.8 1.8 47
2019-04-07 11:00:00 14.4 18 Noroeste 46 Noroeste 0 1002.5 2.6 49
2019-04-07 10:00:00 13.4 13 Noroeste 30 Noroeste 0 1001.8 2.5 50
2019-04-07 09:00:00 12 13 Noroeste 46 Noroeste 0 1001 2.2 54
2019-04-07 08:00:00 11.4 16 Noroeste 42 Noroeste 0 999.9 1.5 52
2019-04-07 07:00:00 11.3 14 Noroeste 42 Norte 0 999.3 0.8 53
2019-04-07 06:00:00 11.4 21 Noroeste 47 Noroeste 0 998.8 0.4 52
2019-04-07 05:00:00 10.9 11 Noroeste 36 Noroeste 0 998.4 -0.2 57
2019-04-07 04:00:00 10.7 12 Norte 27 Noroeste 0 998.5 -0.3 61
2019-04-07 03:00:00 9.3 8 Noroeste 22 Norte 0 998.4 -0.5 71
2019-04-07 02:00:00 8.7 7 Norte 19 Noroeste 0 998.6 -0.5 80
2019-04-07 01:00:00 9 11 Noroeste 21 Oeste 0 998.8 0 76
2019-04-07 00:00:00 9.3 10 Norte 21 Norte 0 998.9 0.6 80
2019-04-06 23:00:00 9.3 9 Noroeste 24 Norte 0 999.1 1.2 84
2019-04-06 22:00:00 8.9 9 Norte 21 Norte 0 998.8 0.2 92
2019-04-06 21:00:00 9.5 9 Noroeste 21 Noroeste 0 998.3 1.9 90
2019-04-06 20:00:00 10.1 8 Noroeste 19 Noroeste 1 997.9 1.6 88
2019-04-06 19:00:00 10.9 20 Sudoeste 63 Sudoeste 1.6 998.6 1.8 78
2019-04-06 18:00:00 16.7 14 Sudeste 25 Sudeste 0 996.4 -0.6 40
2019-04-06 17:00:00 18.9 12 Sudeste 23 Sudeste 0 996.3 -0.5 31
2019-04-06 16:00:00 16.6 15 Sudeste 28 Sur 0 996.8 -0.4 39
2019-04-06 15:00:00 17.1 13 Sudoeste 29 Sur 0 997 -0.5 35
2019-04-06 14:00:00 18.7 10 Noroeste 33 Oeste 0 996.8 -0.8 28
2019-04-06 13:00:00 16.9 17 Noroeste 33 Oeste 0 997.2 -0.1 33
2019-04-06 12:00:00 15.4 22 Noroeste 41 Oeste 0 997.5 0.4 35
2019-04-06 11:00:00 16.6 10 Oeste 30 Oeste 0 997.6 1.2 34
2019-04-06 10:00:00 13.3 12 Oeste 22 Oeste 0 997.3 2 42
2019-04-06 09:00:00 11.9 5 Noroeste 18 Norte 0 997.1 2.7 49
2019-04-06 08:00:00 10.5 7 Sudoeste 40 Oeste 0 996.4 2.5 51
2019-04-06 07:00:00 11.2 14 Oeste 39 Oeste 0 995.3 0.7 47
2019-04-06 06:00:00 10.1 9 Norte 34 Norte 0 994.4 0.2 57
2019-04-06 05:00:00 10.9 18 Noroeste 46 Noroeste 0 993.9 -0.3 53
2019-04-06 04:00:00 10.9 12 Oeste 25 Noroeste 0 994.6 0.4 54
2019-04-06 03:00:00 9.7 10 Norte 34 Noroeste 0 994.2 0.2 71
2019-04-06 02:00:00 9.2 12 Noroeste 30 Noroeste 0 994.2 0 76
2019-04-06 01:00:00 9.6 6 Noroeste 10 Noroeste 0 994.2 0.2 91
2019-04-06 00:00:00 10.4 4 Sur 15 Sur 0 994 0.7 89
2019-04-05 23:00:00 10.6 9 Sudeste 13 Sudeste 0 994.2 0.5 92
2019-04-05 22:00:00 10.9 3 Sur 10 Oeste 0 994 0.2 93
2019-04-05 21:00:00 11.2 5 Nordeste 17 Sur 0.8 993.3 -0.1 93
2019-04-05 20:00:00 12.1 8 Norte 15 Norte 0.4 993.7 0 84
2019-04-05 19:00:00 14.8 8 Sudoeste 30 Sur 0 993.8 -0.6 71
2019-04-05 18:00:00 16.1 14 Sur 36 Sudeste 0 993.4 -1.4 49
2019-04-05 17:00:00 16.8 13 Sudeste 30 Sudeste 0 993.7 -1.9 48
2019-04-05 16:00:00 17.4 16 Sudeste 32 Sudeste 0 994.4 -1.7 49
2019-04-05 15:00:00 19.3 14 Sudeste 29 Sudeste 0 994.8 -2.1 42
2019-04-05 14:00:00 18.5 9 Sudeste 24 Este 0 995.6 -1.7 49
2019-04-05 13:00:00 18 4 Sur 17 Sudeste 0 996.1 -1.2 52
2019-04-05 12:00:00 16.9 8 Sudeste 16 Sur 0 996.9 -0.2 58
2019-04-05 11:00:00 12.7 2 Este 8 Nordeste 0 997.3 0.7 73
2019-04-05 10:00:00 10.7 2 Nordeste 7 Noroeste 0 997.3 0.6 80
2019-04-05 09:00:00 10 3 Noroeste 11 Oeste 0 997.1 0.3 81
2019-04-05 08:00:00 9.3 5 Sudoeste 9 Sudoeste 0 996.6 -0.7 82
2019-04-05 07:00:00 9 2 Oeste 9 Sur 0 996.7 -1.3 81
2019-04-05 06:00:00 8.8 7 Sur 13 Sudeste 0 996.8 -1.6 82
2019-04-05 05:00:00 8.7 9 Sudeste 14 Sur 0 997.3 -1.4 80
2019-04-05 04:00:00 8.9 9 Sudeste 20 Sudeste 0 998 -0.9 79
2019-04-05 03:00:00 9.1 10 Sudeste 16 Sudeste 0 998.4 -0.8 76
2019-04-05 02:00:00 9 10 Sudeste 24 Sudeste 0 998.7 -0.9 77
2019-04-05 01:00:00 9.3 13 Sudeste 23 Sur 0 998.9 -0.6 74
2019-04-05 00:00:00 9.1 13 Sudeste 20 Sur 0 999.2 0.4 72
2019-04-04 23:00:00 9.6 9 Sudeste 18 Sur 0 999.6 1.2 64
2019-04-04 22:00:00 10.3 12 Sur 16 Sur 0 999.5 1.2 58
2019-04-04 21:00:00 11.5 11 Sudeste 25 Sur 0 998.8 0.9 52
2019-04-04 20:00:00 13.8 17 Sur 28 Sur 0 998.4 0.4 42
2019-04-04 19:00:00 16.1 17 Sur 33 Sudoeste 0 998.3 0.2 36
2019-04-04 18:00:00 18.8 12 Sur 30 Sur 0 997.9 -0.9 30
2019-04-04 17:00:00 18.7 11 Sudeste 26 Sudeste 0 998 -1.7 24
2019-04-04 16:00:00 18.5 12 Noroeste 38 Oeste 0 998.1 -1.9 19
2019-04-04 15:00:00 17.3 14 Noroeste 37 Noroeste 0 998.8 -1.5 25
2019-04-04 14:00:00 16.5 15 Oeste 40 Noroeste 0 999.7 -0.2 27
2019-04-04 13:00:00 14.7 23 Oeste 43 Oeste 0 1000 0.3 30
2019-04-04 12:00:00 14.1 15 Noroeste 46 Norte 0 1000.3 0.7 32
2019-04-04 11:00:00 12.4 15 Noroeste 49 Noroeste 0 999.9 0.8 37
2019-04-04 10:00:00 10.7 16 Noroeste 37 Noroeste 0 999.7 0.8 42
2019-04-04 09:00:00 9 17 Noroeste 37 Norte 0 999.6 0.6 45
2019-04-04 08:00:00 7.2 13 Noroeste 31 Noroeste 0 999.1 0.1 51
2019-04-04 07:00:00 6.4 13 Noroeste 23 Norte 0 998.9 -0.5 55
2019-04-04 06:00:00 6.4 9 Norte 19 Norte 0 999 -1.1 57
2019-04-04 05:00:00 6.7 11 Norte 24 Norte 0 999 -1.1 57
2019-04-04 04:00:00 7.7 12 Noroeste 28 Noroeste 0 999.4 -0.2 53
2019-04-04 03:00:00 8.2 10 Noroeste 39 Norte 0 1000.1 1.3 51
2019-04-04 02:00:00 8.7 9 Noroeste 38 Noroeste 0 1000.1 1.8 54
2019-04-04 01:00:00 9.3 23 Norte 56 Norte 0 999.6 0.4 52
2019-04-04 00:00:00 9.9 23 Noroeste 61 Noroeste 0 998.8 0 48
2019-04-03 23:00:00 10 17 Noroeste 50 Oeste 0 998.3 0.2 51
2019-04-03 22:00:00 10.5 13 Norte 41 Noroeste 0 999.2 0.8 61
2019-04-03 21:00:00 10.6 9 Noroeste 31 Noroeste 0 998.8 0.4 63
2019-04-03 20:00:00 11.3 14 Norte 32 Norte 0.2 998.1 -0.2 62
2019-04-03 19:00:00 10.9 16 Norte 42 Norte 0.2 998.4 0.3 68
2019-04-03 18:00:00 12.3 15 Norte 34 Norte 0 998.4 0.1 64
2019-04-03 17:00:00 14.5 17 Norte 33 Noroeste 0 998.3 -1.1 55
2019-04-03 16:00:00 16.8 15 Norte 33 Norte 0 998.1 -2 52
2019-04-03 15:00:00 16.7 12 Norte 29 Norte 0 998.3 -3.1 54
2019-04-03 14:00:00 16.2 12 Norte 32 Norte 0 999.4 -2.7 56
2019-04-03 13:00:00 17.2 12 Norte 31 Norte 0 1000.1 -2.3 55
2019-04-03 12:00:00 14.7 11 Norte 21 Norte 0 1001.4 -1.8 65
2019-04-03 11:00:00 13 6 Norte 13 Norte 0 1002.1 -1.1 77
2019-04-03 10:00:00 12.1 5 Norte 11 Noroeste 0 1002.4 -1.2 90
2019-04-03 09:00:00 10.8 4 Norte 10 Nordeste 0 1003.2 -0.7 96
2019-04-03 08:00:00 9.7 7 Noroeste 9 Norte 0 1003.2 -1.3 96
2019-04-03 07:00:00 10 6 Norte 9 Norte 0 1003.6 -1.5 95
2019-04-03 06:00:00 10.7 5 Noroeste 6 Noroeste 0 1003.9 -1.9 95
2019-04-03 05:00:00 10.7 4 Norte 7 Sudeste 0 1004.5 -1.9 93
2019-04-03 04:00:00 11.2 0 Calma 6 Nordeste 0 1005.1 -1.7 92
2019-04-03 03:00:00 11.8 4 Sur 17 Sudoeste 0 1005.8 -1.3 92
2019-04-03 02:00:00 11.8 10 Sudoeste 14 Sudoeste 0 1006.4 -0.8 88
2019-04-03 01:00:00 12.5 5 Sudeste 7 Sudeste 0 1006.8 -0.2 83
2019-04-03 00:00:00 13.5 3 Nordeste 8 Noroeste 0 1007.1 0.5 81
2019-04-02 23:00:00 14.3 3 Oeste 7 Oeste 0 1007.2 0.5 77
2019-04-02 22:00:00 15.4 2 Nordeste 9 Sudeste 0 1007 0.5 72
2019-04-02 21:00:00 16.6 5 Sur 16 Sur 0 1006.6 -0.1 66
2019-04-02 20:00:00 18.2 7 Sur 12 Sur 0 1006.7 -0.6 63
2019-04-02 19:00:00 19.8 9 Sur 22 Sur 0 1006.5 -1.6 56
2019-04-02 18:00:00 22.3 12 Sur 24 Sur 0 1006.7 -2.3 47
2019-04-02 17:00:00 21.9 10 Sudeste 18 Sur 0 1007.3 -2.3 50
2019-04-02 16:00:00 18.5 6 Sur 9 Sudeste 0 1008.1 -2.1 71
2019-04-02 15:00:00 17.1 4 Nordeste 19 Noroeste 0.4 1009 -1.6 80
2019-04-02 14:00:00 19.4 6 Norte 13 Norte 0 1009.6 -1.2 55
2019-04-02 13:00:00 19.1 3 Nordeste 14 Sur 0 1010.2 -0.4 52
2019-04-02 12:00:00 17.6 6 Sudeste 10 Sudeste 0 1010.6 0.2 57
2019-04-02 11:00:00 13.7 0 Calma 7 Sur 0 1010.8 0.7 74
2019-04-02 10:00:00 10.7 3 Sudeste 5 Sur 0 1010.6 0.5 83
2019-04-02 09:00:00 8.4 0 Calma 6 Noroeste 0 1010.4 0.5 89
2019-04-02 08:00:00 7.4 5 Norte 14 Norte 0 1010.1 0 92
2019-04-02 07:00:00 7.4 3 Oeste 5 Oeste 0 1010.1 -0.4 94
2019-04-02 06:00:00 7.7 3 Norte 5 Noroeste 0 1009.9 -1 92
2019-04-02 05:00:00 8.2 0 Calma 3 Sudoeste 0 1010.1 -1.2 90
2019-04-02 04:00:00 8.6 2 Norte 6 Norte 0 1010.5 -0.9 88
2019-04-02 03:00:00 8.6 4 Norte 10 Noroeste 0 1010.9 -0.6 88
2019-04-02 02:00:00 9.8 3 Este 10 Norte 0 1011.3 -0.3 86
2019-04-02 01:00:00 10.5 6 Norte 9 Norte 0 1011.4 0 84
2019-04-02 00:00:00 11.5 6 Sudeste 8 Sur 0 1011.5 0.9 79
2019-04-01 23:00:00 12 6 Sur 12 Sudeste 0 1011.6 1.7 78
2019-04-01 22:00:00 12.6 6 Sudeste 10 Sudoeste 0 1011.4 1.7 76
2019-04-01 21:00:00 13.5 6 Sudeste 14 Sudeste 0 1010.6 0.6 71
2019-04-01 20:00:00 15.7 5 Sudeste 13 Sudeste 0 1009.9 -0.3 60
2019-04-01 19:00:00 16.9 4 Sudeste 7 Este 0 1009.7 -0.8 58
2019-04-01 18:00:00 15.4 4 Este 11 Este 0 1010 -0.8 57
2019-04-01 17:00:00 15.8 8 Este 13 Sudeste 0 1010.2 -1.1 51
2019-04-01 16:00:00 16.5 4 Sur 11 Sur 0 1010.5 -1.2 43
2019-04-01 15:00:00 17.6 5 Sudeste 9 Norte 0 1010.8 -1 42
2019-04-01 14:00:00 16.8 4 Noroeste 15 Noroeste 0 1011.3 -0.2 54
2019-04-01 13:00:00 15.5 6 Norte 18 Norte 0 1011.7 0.7 65
2019-04-01 12:00:00 13.9 9 Norte 19 Norte 0 1011.8 1 81
2019-04-01 11:00:00 12.3 6 Norte 17 Norte 0 1011.5 0.9 89
2019-04-01 10:00:00 11 6 Norte 15 Norte 0 1011 0.8 96
2019-04-01 09:00:00 10.4 6 Norte 13 Norte 0 1010.8 0.7 97
2019-04-01 08:00:00 10.5 6 Norte 18 Noroeste 0.2 1010.6 0.6 97
2019-04-01 07:00:00 10.4 8 Noroeste 14 Noroeste 0.4 1010.2 0.1 96
2019-04-01 06:00:00 10.5 4 Norte 13 Norte 0.2 1010.1 -0.4 96
2019-04-01 05:00:00 10.5 5 Norte 10 Norte 0 1010 -0.7 96
2019-04-01 04:00:00 10.5 5 Norte 14 Norte 0 1010.1 -0.7 96
2019-04-01 03:00:00 10.5 7 Norte 12 Norte 0.2 1010.5 -0.5 96
2019-04-01 02:00:00 10.8 6 Norte 11 Norte 0 1010.7 -0.4 96
2019-04-01 01:00:00 11 6 Norte 12 Noroeste 0 1010.8 -0.2 96
2019-04-01 00:00:00 11.6 4 Noroeste 6 Oeste 0 1011 0.2 94
2019-03-31 23:00:00 11.9 0 Calma 9 Este 0 1011.1 0.9 90
2019-03-31 22:00:00 11.8 3 Sudoeste 9 Sudoeste 0.2 1011 0.6 90
2019-03-31 21:00:00 12.2 3 Sudoeste 8 Sur 0 1010.8 0.2 95
2019-03-31 20:00:00 12.6 3 Oeste 7 Oeste 0.4 1010.2 -0.6 93
2019-03-31 19:00:00 12.8 6 Oeste 8 Oeste 0.6 1010.4 -0.6 90
2019-03-31 18:00:00 13.5 4 Sudoeste 8 Sur 1.4 1010.6 -0.9 86
2019-03-31 17:00:00 14.3 3 Sudeste 7 Nordeste 0.6 1010.8 -1.6 82
2019-03-31 16:00:00 15 3 Norte 9 Nordeste 0 1011 -2 65
2019-03-31 15:00:00 14.8 3 Oeste 6 Noroeste 0 1011.5 -1.5 67
2019-03-31 14:00:00 14.2 2 Noroeste 6 Nordeste 0 1012.4 -0.5 71
2019-03-31 13:00:00 13.5 3 Este 7 Sudeste 0 1013 0 76
2019-03-31 12:00:00 13.3 3 Norte 9 Norte 0 1013 0.2 70
2019-03-31 11:00:00 11.8 5 Norte 10 Norte 0 1012.9 0 75
2019-03-31 10:00:00 10 2 Noroeste 11 Norte 0 1013 0 81
2019-03-31 09:00:00 8.9 6 Norte 11 Norte 0 1012.8 -0.2 86
2019-03-31 08:00:00 8.4 3 Este 6 Este 0 1012.9 -1.3 87
2019-03-31 07:00:00 7.8 0 Calma 10 Norte 0 1013 -1.7 88
2019-03-31 06:00:00 7.9 8 Noroeste 13 Noroeste 0 1013 -2.1 87
2019-03-31 05:00:00 8.5 4 Norte 7 Noroeste 0 1014.2 -1.1 82
2019-03-31 03:00:00 8.2 5 Norte 7 Norte 0 1015.1 -1.5 84
2019-03-31 01:00:00 8.7 6 Noroeste 9 Noroeste 0 1015.3 -1.9 81
2019-03-31 00:00:00 9.9 6 Noroeste 8 Noroeste 0 1015.9 -1.1 80
2019-03-30 23:00:00 10.7 2 Sudeste 6 Sudoeste 0 1016.6 0 76
2019-03-30 22:00:00 10.9 5 Sudoeste 8 Sudoeste 0 1017.2 1.2 76
2019-03-30 21:00:00 11.7 6 Sudoeste 11 Sudeste 0 1017 1.3 72
2019-03-30 20:00:00 12.7 7 Sudeste 16 Sudeste 0 1016.6 0.7 69
2019-03-30 19:00:00 14 9 Este 21 Sudeste 0 1016 -0.4 63
2019-03-30 18:00:00 15.8 12 Sudeste 26 Este 0 1015.7 -1.3 51
2019-03-30 17:00:00 17.8 11 Sudeste 25 Sudeste 0 1015.9 -1.8 42
2019-03-30 16:00:00 18.5 11 Este 28 Este 0 1016.4 -1.8 38
2019-03-30 15:00:00 18.5 13 Sudeste 23 Este 0 1017 -1.8 38
2019-03-30 14:00:00 18.9 12 Sudeste 23 Sudeste 0 1017.7 -2 40
2019-03-30 13:00:00 19.2 10 Sudeste 22 Sudeste 0 1018.2 -1.8 38
2019-03-30 12:00:00 18 6 Sudeste 20 Este 0 1018.8 -1.2 43
2019-03-30 11:00:00 16.6 6 Sudeste 13 Sudeste 0 1019.7 -0.2 51
2019-03-30 10:00:00 14.8 6 Sur 10 Sur 0 1020 0.1 63
2019-03-30 09:00:00 9.3 0 Calma 8 Noroeste 0 1020 0.3 84
2019-03-30 08:00:00 6.2 5 Norte 10 Norte 0 1019.9 0 89
2019-03-30 07:00:00 5.7 4 Norte 7 Norte 0 1019.9 -0.4 94
2019-03-30 06:00:00 5.6 4 Norte 5 Norte 0 1019.7 -1 89
2019-03-30 05:00:00 5.7 3 Norte 4 Norte 0 1019.9 -1.1 87
2019-03-30 04:00:00 6.2 5 Noroeste 8 Norte 0 1020.3 -0.9 87
2019-03-30 03:00:00 6.6 2 Nordeste 5 Norte 0 1020.7 -0.9 83
2019-03-30 02:00:00 7.1 4 Este 7 Este 0 1021 -0.8 80
2019-03-30 01:00:00 7.5 5 Sur 8 Sur 0 1021.2 -0.8 80
2019-03-30 00:00:00 8.8 5 Sur 6 Sur 0 1021.6 0 79
2019-03-29 23:00:00 9.9 3 Sur 10 Sudoeste 0 1021.8 0.5 74
2019-03-29 22:00:00 10.5 6 Sudoeste 10 Sudoeste 0 1022 1 71
2019-03-29 21:00:00 11.4 6 Sur 12 Sudeste 0 1021.6 0.8 66
2019-03-29 20:00:00 12.8 7 Sudeste 22 Sudeste 0 1021.3 0.6 57
2019-03-29 19:00:00 14.9 11 Sudeste 25 Sudeste 0 1021 0.2 39
2019-03-29 18:00:00 17.2 15 Sudeste 32 Sudeste 0 1020.8 -0.4 35
2019-03-29 17:00:00 19.3 16 Sur 32 Sudeste 0 1020.7 -1.3 31
2019-03-29 16:00:00 19.9 16 Sudeste 36 Sur 0 1020.8 -1.7 34
2019-03-29 15:00:00 19.8 17 Sudeste 32 Sudeste 0 1021.2 -1.8 34
2019-03-29 14:00:00 20.3 17 Sudeste 31 Sur 0 1022 -1.6 35
2019-03-29 13:00:00 19.6 13 Este 26 Este 0 1022.5 -1.4 44
2019-03-29 12:00:00 19.6 12 Sudeste 25 Sudeste 0 1023 -0.6 41
2019-03-29 11:00:00 18.3 11 Sur 21 Sur 0 1023.6 0.2 53
2019-03-29 10:00:00 15.2 6 Sur 11 Sur 0 1023.9 0.9 61
2019-03-29 09:00:00 10.8 2 Sur 5 Este 0 1023.6 1 65
2019-03-29 08:00:00 6.5 0 Calma 8 Noroeste 0 1023.4 1 75
2019-03-29 07:00:00 4.7 3 Norte 7 Norte 0 1023 0.6 82
2019-03-29 06:00:00 5.2 4 Noroeste 7 Norte 0 1022.6 -0.2 76
2019-03-29 05:00:00 6.3 0 Calma 6 Norte 0 1022.4 -0.6 74
2019-03-29 04:00:00 6.8 6 Norte 7 Norte 0 1022.4 -0.8 74
2019-03-29 03:00:00 7 3 Nordeste 8 Sudoeste 0 1022.8 -0.5 71
2019-03-29 02:00:00 7.4 6 Sudoeste 10 Sudoeste 0 1023 -0.1 70
2019-03-29 01:00:00 8.4 7 Sudoeste 12 Sudoeste 0 1023.2 0.1 74
2019-03-29 00:00:00 9.3 8 Sudoeste 15 Sudoeste 0 1023.3 0.5 76
2019-03-28 23:00:00 10.1 6 Sudoeste 13 Sur 0 1023.1 0.9 75
2019-03-28 22:00:00 11.1 9 Sudeste 17 Sudeste 0 1023.1 1.3 71
2019-03-28 21:00:00 12.1 12 Sudeste 17 Sudeste 0 1022.8 1.5 65
2019-03-28 20:00:00 13.3 10 Sudeste 23 Sudeste 0 1022.2 1.1 57
2019-03-28 19:00:00 15.1 13 Sudeste 28 Sudeste 0 1021.8 0.5 42
2019-03-28 18:00:00 17.3 14 Sudeste 32 Sudeste 0 1021.3 -0.1 23
2019-03-28 17:00:00 18.6 17 Sudeste 34 Sudeste 0 1021.1 -0.7 23
2019-03-28 16:00:00 20.7 19 Sudeste 35 Sudeste 0 1021.3 -1.1 20
2019-03-28 15:00:00 21.8 17 Sudeste 36 Sudeste 0 1021.4 -1.6 20
2019-03-28 14:00:00 22.3 6 Este 19 Sudeste 0 1021.8 -1.7 18
2019-03-28 13:00:00 21.1 7 Sudeste 17 Este 0 1022.4 -1.3 19
2019-03-28 12:00:00 20.7 4 Sudeste 18 Norte 0 1023 -0.7 21
2019-03-28 11:00:00 19.6 8 Norte 19 Nordeste 0 1023.5 -0.3 30
2019-03-28 10:00:00 17.3 10 Norte 21 Norte 0 1023.7 0.3 36
2019-03-28 09:00:00 13.1 6 Nordeste 14 Nordeste 0 1023.7 0.8 51
2019-03-28 08:00:00 7.2 2 Nordeste 8 Noroeste 0 1023.8 1.4 71
2019-03-28 07:00:00 5.7 4 Oeste 7 Sudoeste 0 1023.4 1 73
2019-03-28 06:00:00 5.5 0 Calma 6 Sudeste 0 1022.9 0.4 82
2019-03-28 05:00:00 5.9 3 Norte 12 Norte 0 1022.4 -0.2 74
2019-03-28 04:00:00 6.3 2 Nordeste 13 Norte 0 1022.4 -0.2 73
2019-03-28 03:00:00 6.7 7 Norte 12 Noroeste 0 1022.5 0.2 71
2019-03-28 02:00:00 7.9 7 Noroeste 12 Noroeste 0 1022.6 0.7 65
2019-03-28 01:00:00 8.7 5 Norte 10 Oeste 0 1022.6 1.1 64
2019-03-28 00:00:00 9.5 4 Sudoeste 13 Sudoeste 0 1022.3 1.6 62
2019-03-27 23:00:00 10.3 7 Sudoeste 10 Oeste 0 1021.9 2.4 58
2019-03-27 22:00:00 11.2 6 Sudoeste 12 Sudeste 0 1021.5 2.4 55
2019-03-27 21:00:00 12 7 Sudeste 17 Sudeste 0 1020.7 2.1 54
2019-03-27 20:00:00 13.5 9 Sudeste 20 Sur 0 1019.5 1.2 47
2019-03-27 19:00:00 16.1 11 Sur 26 Sur 0 1019.1 0.8 33
2019-03-27 18:00:00 19 16 Sur 29 Sur 0 1018.6 0.1 24
2019-03-27 17:00:00 20.9 14 Sur 30 Este 0 1018.3 -0.5 28
2019-03-27 16:00:00 20.4 15 Sudeste 32 Sudeste 0 1018.3 -1 24
2019-03-27 15:00:00 22.8 12 Sudeste 29 Sudeste 0 1018.5 -1.3 23
2019-03-27 14:00:00 22.1 5 Sudeste 17 Nordeste 0 1018.8 -1.1 13
2019-03-27 13:00:00 22.1 4 Nordeste 15 Norte 0 1019.3 -0.8 16
2019-03-27 12:00:00 20.5 7 Norte 22 Nordeste 0 1019.8 -0.2 22
2019-03-27 11:00:00 19.5 8 Nordeste 18 Norte 0 1019.9 -0.1 27
2019-03-27 10:00:00 17.2 6 Norte 24 Nordeste 0 1020.1 0.6 32
2019-03-27 09:00:00 13.7 10 Norte 21 Nordeste 0 1020 0.6 42
2019-03-27 08:00:00 7.5 5 Norte 12 Norte 0 1020 0.6 70
2019-03-27 07:00:00 5.6 4 Norte 8 Noroeste 0 1019.5 0.4 82
2019-03-27 06:00:00 6 4 Norte 10 Norte 0 1019.4 0.2 82
2019-03-27 05:00:00 6.8 6 Norte 14 Norte 0 1019.4 0 77
2019-03-27 04:00:00 7.7 8 Norte 14 Noroeste 0 1019.1 -0.7 76
2019-03-27 03:00:00 8.3 8 Noroeste 12 Norte 0 1019.2 -0.6 74
2019-03-27 02:00:00 8.6 8 Norte 11 Norte 0 1019.4 0 72
2019-03-27 01:00:00 10.2 6 Oeste 12 Sudeste 0 1019.8 0.8 66
2019-03-27 00:00:00 11 8 Sur 14 Sur 0 1019.8 1.1 63
2019-03-26 23:00:00 11.9 9 Sur 22 Sur 0 1019.4 1.2 59
2019-03-26 22:00:00 12.6 13 Sur 26 Sur 0 1019 1.4 56
2019-03-26 21:00:00 13.4 10 Sur 21 Sudeste 0 1018.7 2 53
2019-03-26 20:00:00 13.6 13 Sudeste 26 Sudeste 0 1018.2 3.1 51
2019-03-26 19:00:00 13.9 14 Sudeste 38 Sudeste 0 1017.6 3.2 53
2019-03-26 18:00:00 15.4 20 Sudeste 46 Sudeste 0 1016.7 1.9 52
2019-03-26 17:00:00 19.8 23 Sudeste 41 Sudeste 0 1015.1 -0.4 27
2019-03-26 16:00:00 22.5 15 Sudeste 29 Sudeste 0 1014.4 -1.8 22
2019-03-26 15:00:00 23.4 8 Nordeste 21 Nordeste 0 1014.8 -1.9 13
2019-03-26 14:00:00 23.6 11 Nordeste 26 Norte 0 1015.5 -1.6 16
2019-03-26 13:00:00 22.7 11 Norte 27 Norte 0 1016.2 -1 18
2019-03-26 12:00:00 21.5 14 Nordeste 30 Nordeste 0 1016.7 -1 25
2019-03-26 11:00:00 19.8 11 Nordeste 28 Norte 0 1017.1 -0.5 29
2019-03-26 10:00:00 17.6 9 Nordeste 27 Norte 0 1017.2 0.3 36
2019-03-26 09:00:00 15.3 9 Norte 20 Norte 0 1017.7 1.6 41
2019-03-26 08:00:00 11.3 6 Norte 19 Norte 0 1017.6 2.4 53
2019-03-26 07:00:00 10.4 10 Norte 29 Norte 0 1016.9 2.3 54
2019-03-26 06:00:00 10.8 9 Norte 27 Noroeste 0 1016.1 1.5 51
2019-03-26 05:00:00 11.2 10 Norte 23 Norte 0 1015.2 0.4 50
2019-03-26 04:00:00 11.8 10 Norte 42 Noroeste 0 1014.6 0.2 47
2019-03-26 03:00:00 12.1 14 Norte 35 Noroeste 0 1014.6 0.1 44
2019-03-26 02:00:00 12.6 9 Norte 40 Noroeste 0 1014.8 0.8 43
2019-03-26 01:00:00 13.6 15 Noroeste 38 Oeste 0 1014.4 1 39
2019-03-26 00:00:00 14.1 17 Noroeste 55 Noroeste 0 1014.5 1.3 38
2019-03-25 23:00:00 15.2 28 Noroeste 55 Noroeste 0 1014 1.2 35
2019-03-25 22:00:00 15.8 14 Noroeste 42 Noroeste 0 1013.4 0.8 32
2019-03-25 21:00:00 17.1 21 Noroeste 40 Noroeste 0 1013.2 0.8 28
2019-03-25 20:00:00 18 19 Oeste 36 Noroeste 0 1012.8 0.4 26
2019-03-25 19:00:00 19.3 18 Noroeste 37 Oeste 0 1012.6 -0.2 26
2019-03-25 18:00:00 21.5 18 Oeste 32 Noroeste 0 1012.4 -0.8 24
2019-03-25 17:00:00 23.4 13 Noroeste 37 Noroeste 0 1012.4 -1.5 23
2019-03-25 16:00:00 23.3 20 Noroeste 38 Oeste 0 1012.8 -2 25
2019-03-25 15:00:00 23.4 24 Oeste 44 Noroeste 0 1013.2 -2.4 26
2019-03-25 14:00:00 23 24 Noroeste 45 Oeste 0 1013.9 -1.9 28
2019-03-25 13:00:00 22.6 21 Noroeste 42 Oeste 0 1014.8 -1.1 29
2019-03-25 12:00:00 22.2 20 Noroeste 37 Noroeste 0 1015.6 -0.2 27
2019-03-25 11:00:00 21.4 16 Noroeste 37 Noroeste 0 1015.8 -0.1 27
2019-03-25 10:00:00 20.1 14 Noroeste 34 Noroeste 0 1015.9 0.2 29
2019-03-25 09:00:00 17.9 19 Noroeste 41 Noroeste 0 1015.8 0.3 32
2019-03-25 08:00:00 15.5 14 Norte 30 Norte 0 1015.9 0.4 38
2019-03-25 07:00:00 13.8 7 Norte 26 Norte 0 1015.7 -0.2 46
2019-03-25 06:00:00 14.4 14 Norte 33 Norte 0 1015.5 -1 43
2019-03-25 05:00:00 13.2 14 Norte 29 Norte 0 1015.5 -1.5 48
2019-03-25 04:00:00 9.2 10 Norte 20 Norte 0 1015.9 -1.4 62
2019-03-25 03:00:00 9.1 3 Nordeste 12 Noroeste 0 1016.5 -1 66
2019-03-25 02:00:00 9.2 9 Noroeste 17 Norte 0 1017 -0.7 64
2019-03-25 01:00:00 10.4 3 Norte 8 Norte 0 1017.3 -0.4 62
2019-03-25 00:00:00 11.4 4 Nordeste 6 Norte 0 1017.5 0.3 60
2019-03-24 23:00:00 12.1 5 Norte 7 Oeste 0 1017.7 0.7 58
2019-03-24 22:00:00 13.8 4 Sudoeste 6 Sur 0 1017.7 0.7 53
2019-03-24 21:00:00 15 5 Sur 13 Sudoeste 0 1017.2 0.5 47
2019-03-24 20:00:00 16.4 10 Sudoeste 16 Sur 0 1017 0.3 43
2019-03-24 19:00:00 18.9 10 Sur 16 Sur 0 1017 0.1 38
2019-03-24 18:00:00 22.1 11 Sudeste 24 Sudeste 0 1016.7 -0.5 30
2019-03-24 17:00:00 24.3 14 Sur 30 Sur 0 1016.7 -1.1 25
2019-03-24 16:00:00 25.6 14 Sur 30 Sudeste 0 1016.9 -1.5 22
2019-03-24 15:00:00 25.3 14 Sudeste 36 Sudeste 0 1017.2 -1.8 22
2019-03-24 14:00:00 26.6 14 Sudeste 25 Sudeste 0 1017.8 -1.4 18
2019-03-24 13:00:00 26.4 12 Sudeste 21 Sudeste 0 1018.4 -0.9 19
2019-03-24 12:00:00 25.6 12 Sur 21 Sudeste 0 1019 -0.2 21
2019-03-24 11:00:00 23.2 7 Norte 22 Norte 0 1019.2 0.2 21
2019-03-24 10:00:00 19.3 9 Noroeste 23 Norte 0 1019.3 0.6 27
2019-03-24 09:00:00 15.8 13 Norte 24 Norte 0 1019.2 0.6 34
2019-03-24 08:00:00 9.2 7 Norte 15 Norte 0 1019 0.6 57
2019-03-24 07:00:00 7.5 4 Norte 10 Norte 0 1018.7 0.1 58
2019-03-24 06:00:00 8.1 6 Norte 18 Norte 0 1018.6 -0.5 54
2019-03-24 05:00:00 7.7 4 Norte 19 Norte 0 1018.4 -0.9 59
2019-03-24 04:00:00 8.4 7 Norte 18 Norte 0 1018.6 -1 55
2019-03-24 03:00:00 7.9 6 Norte 11 Norte 0 1019.1 -0.7 59
2019-03-24 02:00:00 8.5 4 Norte 7 Noroeste 0 1019.3 -0.7 56
2019-03-24 01:00:00 9.4 2 Noroeste 13 Norte 0 1019.6 -0.5 54
2019-03-24 00:00:00 10 7 Norte 12 Noroeste 0 1019.8 0 51
2019-03-23 23:00:00 11.6 7 Norte 12 Noroeste 0 1020 0.7 46
2019-03-23 22:00:00 12.6 4 Norte 8 Nordeste 0 1020.1 0.9 46
2019-03-23 21:00:00 14.5 2 Sudoeste 12 Sur 0 1019.8 0.7 41
2019-03-23 20:00:00 16 6 Sudeste 12 Sur 0 1019.3 0.2 37
2019-03-23 19:00:00 18.6 7 Sudeste 18 Sudeste 0 1019.2 -0.1 30
2019-03-23 18:00:00 21.5 10 Sudeste 21 Sudeste 0 1019.1 -0.6 23
2019-03-23 17:00:00 23.7 12 Sudeste 24 Sur 0 1019.1 -1 23
2019-03-23 16:00:00 25.2 14 Sudeste 27 Sur 0 1019.3 -1.5 20
2019-03-23 15:00:00 24.7 12 Sudeste 26 Sudeste 0 1019.7 -1.6 19
2019-03-23 14:00:00 25.1 5 Nordeste 14 Nordeste 0 1020.1 -1.7 19
2019-03-23 13:00:00 24.7 7 Nordeste 17 Norte 0 1020.8 -1.5 19
2019-03-23 12:00:00 23.8 6 Norte 22 Norte 0 1021.3 -1 24
2019-03-23 11:00:00 21.1 10 Norte 22 Nordeste 0 1021.8 -0.4 29
2019-03-23 10:00:00 18.2 6 Norte 19 Norte 0 1022.3 0.4 36
2019-03-23 09:00:00 13.1 7 Norte 15 Norte 0 1022.3 0.6 48
2019-03-23 08:00:00 7.8 4 Norte 17 Noroeste 0 1022.2 0.4 65
2019-03-23 07:00:00 7.5 8 Norte 23 Noroeste 0 1021.9 -0.1 59
2019-03-23 06:00:00 6.4 9 Norte 17 Norte 0 1021.7 -0.8 65
2019-03-23 05:00:00 6.7 10 Norte 17 Norte 0 1021.8 -0.6 61
2019-03-23 04:00:00 6.7 4 Norte 16 Norte 0 1022 -0.5 64
2019-03-23 03:00:00 7.5 4 Noroeste 11 Noroeste 0 1022.5 -0.6 61
2019-03-23 02:00:00 8.2 5 Norte 9 Norte 0 1022.4 -1 63
2019-03-23 01:00:00 9.2 5 Noroeste 9 Noroeste 0 1022.5 -0.7 59
2019-03-23 00:00:00 10.2 2 Este 11 Noroeste 0 1023.1 0.4 58
2019-03-22 23:00:00 11.1 5 Norte 8 Norte 0 1023.4 1.5 57
2019-03-22 22:00:00 12.3 0 Calma 17 Sudoeste 0 1023.2 1.7 53
2019-03-22 21:00:00 13.1 12 Sudoeste 16 Sudoeste 0 1022.7 1.5 51
2019-03-22 20:00:00 14.4 9 Sur 17 Sur 0 1021.9 0.9 45
2019-03-22 19:00:00 16.6 8 Sur 22 Sudeste 0 1021.5 0.3 36
2019-03-22 18:00:00 19.3 11 Sudeste 22 Sudeste 0 1021.2 -0.7 28
2019-03-22 17:00:00 21.4 14 Sudeste 25 Sur 0 1021 -1.4 26
2019-03-22 16:00:00 23 9 Sudeste 21 Sur 0 1021.2 -2 23
2019-03-22 15:00:00 22.9 8 Sur 19 Este 0 1021.9 -1.9 22
2019-03-22 14:00:00 22.3 5 Sudoeste 16 Norte 0 1022.4 -1.6 24
2019-03-22 13:00:00 21.3 4 Norte 15 Este 0 1023.2 -0.7 25
2019-03-22 12:00:00 20.2 5 Oeste 19 Noroeste 0 1023.8 0.3 28
2019-03-22 11:00:00 18.5 10 Norte 19 Norte 0 1024 0.8 31
2019-03-22 10:00:00 16.3 10 Norte 22 Norte 0 1023.9 1 38
2019-03-22 09:00:00 13.3 7 Norte 15 Norte 0 1023.5 1.1 46
2019-03-22 08:00:00 9.5 8 Norte 21 Norte 0 1023.2 0.8 56
2019-03-22 07:00:00 8.5 12 Norte 23 Norte 0 1022.9 0.3 60
2019-03-22 06:00:00 6.4 10 Norte 17 Norte 0 1022.4 -0.3 73
2019-03-22 05:00:00 5 4 Norte 9 Norte 0 1022.4 -0.8 80
2019-03-22 04:00:00 5.3 5 Norte 15 Noroeste 0 1022.6 -0.6 77
2019-03-22 03:00:00 5.6 7 Norte 11 Norte 0 1022.7 -1 76
2019-03-22 02:00:00 6.1 3 Nordeste 11 Norte 0 1023.2 -0.7 72
2019-03-22 01:00:00 6.6 5 Norte 11 Noroeste 0 1023.2 -0.5 70
2019-03-22 00:00:00 8.1 9 Noroeste 12 Noroeste 0 1023.7 0.2 65
2019-03-21 23:00:00 8.7 4 Nordeste 5 Nordeste 0 1023.9 1 66
2019-03-21 22:00:00 10.1 3 Sudeste 7 Sudoeste 0 1023.7 1.2 62
2019-03-21 21:00:00 10.9 6 Sudoeste 8 Sudoeste 0 1023.5 1.2 58
2019-03-21 20:00:00 12 4 Sudeste 10 Sudeste 0 1022.9 0.6 54
2019-03-21 19:00:00 13.7 5 Sur 16 Sudeste 0 1022.5 0.2 47
2019-03-21 18:00:00 15.5 10 Sudeste 28 Este 0 1022.3 0.2 41
2019-03-21 17:00:00 16.6 15 Sudeste 31 Este 0 1022.3 -0.5 38
2019-03-21 16:00:00 16.7 22 Este 40 Este 0 1022.3 -1.3 29
2019-03-21 15:00:00 21.7 9 Sur 21 Sur 0 1022.1 -1.9 22
2019-03-21 14:00:00 20.3 9 Sur 19 Sudeste 0 1022.8 -1.5 25
2019-03-21 13:00:00 19.3 7 Este 18 Nordeste 0 1023.6 -0.7 26
2019-03-21 12:00:00 18.8 8 Nordeste 20 Nordeste 0 1024 -0.2 28
2019-03-21 11:00:00 18.1 7 Nordeste 22 Norte 0 1024.3 0.4 34
2019-03-21 10:00:00 15.6 11 Norte 23 Norte 0 1024.3 0.9 41
2019-03-21 09:00:00 12.8 12 Norte 23 Norte 0 1024.2 1.2 45
2019-03-21 08:00:00 8.7 9 Norte 21 Norte 0 1023.9 1.1 57
2019-03-21 07:00:00 8 11 Norte 20 Norte 0 1023.4 0.7 58
2019-03-21 06:00:00 7.9 12 Norte 18 Norte 0 1023 -0.3 58
2019-03-21 05:00:00 8.3 11 Norte 18 Norte 0 1022.8 -0.9 57
2019-03-21 04:00:00 8 12 Norte 20 Norte 0 1022.7 -1.5 60
2019-03-21 03:00:00 8 9 Norte 14 Norte 0 1023.3 -1.3 71
2019-03-21 02:00:00 8 9 Noroeste 17 Oeste 0 1023.7 -1.4 71
2019-03-21 01:00:00 8.4 5 Nordeste 9 Norte 0 1024.2 -0.8 70
2019-03-21 00:00:00 8.8 3 Nordeste 5 Nordeste 0 1024.6 0.1 70